createdAt,value
2019-03-06T00:00:07.302Z,7.60
2019-03-06T00:06:47.496Z,7.70
2019-03-06T00:08:52.451Z,7.60
2019-03-06T00:11:01.460Z,7.60
2019-03-06T00:13:06.809Z,7.60
2019-03-06T00:15:11.544Z,7.60
2019-03-06T00:17:16.391Z,7.60
2019-03-06T00:19:20.961Z,7.70
2019-03-06T00:21:27.761Z,7.70
2019-03-06T00:23:34.927Z,7.60
2019-03-06T00:25:41.159Z,7.60
2019-03-06T00:27:45.562Z,7.60
2019-03-06T00:29:55.588Z,7.70
2019-03-06T00:32:02.109Z,7.70
2019-03-06T00:34:06.637Z,7.60
2019-03-06T00:36:19.507Z,7.70
2019-03-06T00:38:27.395Z,7.70
2019-03-06T00:40:53.723Z,7.70
2019-03-06T00:42:58.843Z,7.70
2019-03-06T00:45:06.653Z,7.70
2019-03-06T00:47:12.575Z,7.70
2019-03-06T00:49:18.919Z,7.70
2019-03-06T00:51:23.366Z,7.70
2019-03-06T00:53:28.211Z,7.70
2019-03-06T00:55:33.605Z,7.70
2019-03-06T00:57:39.035Z,7.60
2019-03-06T00:59:43.460Z,7.70
2019-03-06T01:01:48.776Z,7.70
2019-03-06T01:03:53.516Z,7.60
2019-03-06T01:05:58.506Z,7.60
2019-03-06T01:08:03.685Z,7.60
2019-03-06T01:10:09.406Z,7.60
2019-03-06T01:12:15.184Z,7.70
2019-03-06T01:14:40.418Z,7.70
2019-03-06T01:16:44.928Z,7.70
2019-03-06T01:18:49.337Z,7.70
2019-03-06T01:20:53.735Z,7.70
2019-03-06T01:22:58.250Z,7.60
2019-03-06T01:25:03.166Z,7.60
2019-03-06T01:27:08.174Z,7.60
2019-03-06T01:29:13.100Z,7.70
2019-03-06T01:31:17.723Z,7.70
2019-03-06T01:33:28.748Z,7.70
2019-03-06T01:35:48.752Z,7.70
2019-03-06T01:38:12.118Z,7.60
2019-03-06T01:40:22.384Z,7.60
2019-03-06T01:42:40.857Z,7.60
2019-03-06T01:45:07.810Z,7.60
2019-03-06T01:47:14.632Z,7.60
2019-03-06T01:49:20.070Z,7.70
2019-03-06T01:51:25.449Z,7.70
2019-03-06T01:53:30.630Z,7.60
2019-03-06T01:55:55.133Z,7.60
2019-03-06T01:57:59.947Z,7.70
2019-03-06T02:00:04.940Z,7.60
2019-03-06T02:02:09.817Z,7.60
2019-03-06T02:04:33.462Z,7.70
2019-03-06T02:06:38.095Z,7.70
2019-03-06T02:08:42.685Z,7.80
2019-03-06T02:10:59.816Z,7.70
2019-03-06T02:13:04.722Z,7.60
2019-03-06T02:15:10.848Z,7.60
2019-03-06T02:17:15.352Z,7.60
2019-03-06T02:19:19.779Z,7.70
2019-03-06T02:21:24.301Z,7.70
2019-03-06T02:23:28.664Z,7.70
2019-03-06T02:25:33.571Z,7.80
2019-03-06T02:27:38.191Z,7.70
2019-03-06T02:30:01.812Z,7.70
2019-03-06T02:32:06.501Z,7.70
2019-03-06T02:34:12.972Z,7.70
2019-03-06T02:39:00.766Z,7.70
2019-03-06T02:41:17.354Z,7.70
2019-03-06T02:43:34.174Z,7.70
2019-03-06T02:45:39.131Z,7.60
2019-03-06T02:47:44.347Z,7.70
2019-03-06T02:49:48.997Z,7.70
2019-03-06T02:51:53.618Z,7.60
2019-03-06T02:53:58.303Z,7.70
2019-03-06T02:56:02.831Z,7.70
2019-03-06T02:58:39.221Z,7.70
2019-03-06T03:01:24.970Z,7.70
2019-03-06T03:03:48.826Z,7.70
2019-03-06T03:06:06.215Z,7.70
2019-03-06T03:08:12.531Z,7.70
2019-03-06T03:10:18.293Z,7.70
2019-03-06T03:12:22.779Z,7.70
2019-03-06T03:14:27.232Z,7.70
2019-03-06T03:16:31.970Z,7.70
2019-03-06T03:18:36.421Z,7.70
2019-03-06T03:20:40.893Z,7.70
2019-03-06T03:22:48.281Z,7.70
2019-03-06T03:24:52.811Z,7.70
2019-03-06T03:26:57.693Z,7.80
2019-03-06T03:29:02.506Z,7.80
2019-03-06T03:31:26.075Z,7.70
2019-03-06T03:33:49.540Z,7.70
2019-03-06T03:35:55.161Z,7.80
2019-03-06T03:37:59.644Z,7.70
2019-03-06T03:40:04.101Z,7.80
2019-03-06T03:42:08.722Z,7.80
2019-03-06T03:44:15.456Z,7.80
2019-03-06T03:46:19.987Z,7.80
2019-03-06T03:48:27.637Z,7.80
2019-03-06T03:50:32.238Z,7.90
2019-03-06T03:52:56.686Z,7.90
2019-03-06T03:57:33.406Z,8.00
2019-03-06T03:59:38.791Z,8.00
2019-03-06T04:01:43.571Z,8.00
2019-03-06T04:03:48.520Z,8.00
2019-03-06T04:05:54.648Z,8.00
2019-03-06T04:07:59.160Z,8.00
2019-03-06T04:10:03.921Z,8.10
2019-03-06T04:12:08.686Z,8.10
2019-03-06T04:14:24.279Z,8.10
2019-03-06T04:16:48.001Z,8.10
2019-03-06T04:18:53.879Z,8.10
2019-03-06T04:20:58.779Z,8.10
2019-03-06T04:23:03.239Z,8.10
2019-03-06T04:25:10.101Z,8.00
2019-03-06T04:27:16.643Z,8.00
2019-03-06T04:29:21.359Z,8.10
2019-03-06T04:31:44.831Z,8.00
2019-03-06T04:33:49.358Z,8.00
2019-03-06T04:36:13.350Z,8.00
2019-03-06T04:40:35.448Z,8.00
2019-03-06T04:43:00.513Z,8.00
2019-03-06T04:45:27.319Z,8.00
2019-03-06T04:47:51.019Z,7.90
2019-03-06T04:49:55.819Z,8.00
2019-03-06T04:52:02.744Z,8.00
2019-03-06T04:54:07.462Z,8.00
2019-03-06T04:56:33.339Z,8.00
2019-03-06T04:58:38.196Z,8.00
2019-03-06T05:00:44.370Z,8.10
2019-03-06T05:03:09.859Z,8.10
2019-03-06T05:05:14.852Z,8.10
2019-03-06T05:07:19.797Z,8.10
2019-03-06T05:09:24.220Z,8.10
2019-03-06T05:11:29.045Z,8.10
2019-03-06T05:13:35.686Z,8.10
2019-03-06T05:16:01.027Z,8.10
2019-03-06T05:18:18.269Z,8.20
2019-03-06T05:20:23.602Z,8.20
2019-03-06T05:22:36.394Z,8.20
2019-03-06T05:24:40.919Z,8.10
2019-03-06T05:26:46.229Z,8.20
2019-03-06T05:28:54.026Z,8.20
2019-03-06T05:30:58.526Z,8.20
2019-03-06T05:33:05.513Z,8.10
2019-03-06T05:35:48.859Z,8.10
2019-03-06T05:38:14.222Z,8.10
2019-03-06T05:40:19.632Z,8.10
2019-03-06T05:42:26.541Z,8.00
2019-03-06T05:44:32.477Z,8.00
2019-03-06T05:46:58.550Z,8.10
2019-03-06T05:53:28.099Z,8.00
2019-03-06T05:55:33.101Z,8.10
2019-03-06T05:57:37.502Z,8.10
2019-03-06T06:04:10.516Z,8.30
2019-03-06T06:06:15.949Z,8.30
2019-03-06T06:08:20.931Z,8.40
2019-03-06T06:10:44.405Z,8.40
2019-03-06T06:13:00.718Z,8.40
2019-03-06T06:15:06.784Z,8.40
2019-03-06T06:17:31.273Z,8.40
2019-03-06T06:19:19.946Z,8.40
2019-03-06T06:22:03.895Z,8.40
2019-03-06T06:24:12.770Z,8.50
2019-03-06T06:26:17.837Z,8.40
2019-03-06T06:28:22.345Z,8.40
2019-03-06T06:30:27.280Z,8.50
2019-03-06T06:32:33.148Z,8.50
2019-03-06T06:34:58.888Z,8.50
2019-03-06T06:37:03.904Z,8.50
2019-03-06T06:39:08.807Z,8.50
2019-03-06T06:41:36.325Z,8.50
2019-03-06T06:43:40.913Z,8.50
2019-03-06T06:45:46.132Z,8.60
2019-03-06T06:48:37.744Z,8.70
2019-03-06T06:51:22.939Z,8.60
2019-03-06T06:53:34.857Z,8.60
2019-03-06T06:56:12.431Z,8.60
2019-03-06T06:58:44.935Z,8.60
2019-03-06T07:02:00.042Z,8.60
2019-03-06T07:04:42.111Z,8.60
2019-03-06T07:07:10.509Z,8.70
2019-03-06T07:09:32.844Z,8.60
2019-03-06T07:11:56.373Z,8.60
2019-03-06T07:14:16.508Z,8.60
2019-03-06T07:16:39.992Z,8.60
2019-03-06T07:19:15.701Z,8.70
2019-03-06T07:21:36.413Z,8.80
2019-03-06T07:26:38.924Z,8.80
2019-03-06T07:29:05.169Z,8.90
2019-03-06T07:31:28.651Z,8.90
2019-03-06T07:33:52.076Z,9.00
2019-03-06T07:36:19.101Z,9.00
2019-03-06T07:38:27.055Z,9.00
2019-03-06T07:40:53.471Z,9.00
2019-03-06T07:43:15.394Z,9.10
2019-03-06T07:46:05.633Z,9.10
2019-03-06T07:50:43.324Z,9.10
2019-03-06T07:53:44.738Z,9.10
2019-03-06T07:56:00.877Z,9.20
2019-03-06T07:58:43.820Z,9.30
2019-03-06T08:00:48.756Z,9.40
2019-03-06T08:03:34.025Z,9.40
2019-03-06T08:05:50.321Z,9.50
2019-03-06T08:07:56.027Z,9.70
2019-03-06T08:12:50.077Z,9.70
2019-03-06T08:15:14.964Z,9.70
2019-03-06T08:28:52.622Z,9.70
2019-03-06T08:31:07.127Z,9.80
2019-03-06T09:43:24.741Z,12.00
2019-03-06T09:46:05.118Z,12.10
2019-03-06T09:48:18.314Z,12.20
2019-03-06T09:50:45.207Z,12.20
2019-03-06T09:53:08.515Z,12.10
2019-03-06T09:55:32.609Z,12.20
2019-03-06T09:57:56.066Z,12.30
2019-03-06T10:00:19.252Z,12.30
2019-03-06T10:02:42.649Z,12.50
2019-03-06T10:05:25.159Z,12.80
2019-03-06T10:07:36.075Z,12.80
2019-03-06T10:09:48.501Z,12.60
2019-03-06T10:12:05.665Z,12.60
2019-03-06T10:14:36.316Z,12.50
2019-03-06T10:17:15.784Z,12.60
2019-03-06T10:19:39.272Z,12.70
2019-03-06T10:21:43.779Z,12.80
2019-03-06T10:23:49.079Z,12.70
2019-03-06T10:25:54.303Z,12.60
2019-03-06T10:28:06.213Z,12.80
2019-03-06T10:32:41.106Z,12.90
2019-03-06T10:34:46.061Z,13.20
2019-03-06T10:36:50.696Z,13.20
2019-03-06T10:38:59.890Z,13.10
2019-03-06T10:41:08.472Z,13.10
2019-03-06T10:43:16.632Z,13.00
2019-03-06T10:45:23.991Z,13.10
2019-03-06T10:47:29.662Z,13.00
2019-03-06T10:49:54.926Z,13.10
2019-03-06T10:51:59.496Z,13.40
2019-03-06T10:54:04.343Z,13.40
2019-03-06T10:56:11.623Z,13.30
2019-03-06T10:58:16.176Z,13.20
2019-03-06T11:00:24.674Z,13.30
2019-03-06T11:02:29.781Z,13.20
2019-03-06T11:07:09.341Z,13.00
2019-03-06T11:09:32.955Z,13.10
2019-03-06T11:11:38.836Z,13.30
2019-03-06T11:13:43.696Z,13.30
2019-03-06T11:15:55.373Z,13.10
2019-03-06T11:17:55.029Z,13.20
2019-03-06T11:20:01.771Z,13.20
2019-03-06T11:22:07.772Z,13.30
2019-03-06T11:24:12.849Z,13.30
2019-03-06T11:26:17.563Z,13.30
2019-03-06T11:28:23.601Z,13.30
2019-03-06T11:30:32.278Z,13.30
2019-03-06T11:32:59.840Z,13.30
2019-03-06T11:35:05.084Z,13.40
2019-03-06T11:39:56.093Z,13.20
2019-03-06T11:42:00.886Z,13.40
2019-03-06T11:44:07.350Z,13.50
2019-03-06T11:46:14.861Z,13.50
2019-03-06T11:48:20.021Z,13.50
2019-03-06T11:50:24.661Z,13.40
2019-03-06T11:52:29.653Z,13.70
2019-03-06T11:54:35.584Z,13.80
2019-03-06T11:56:59.040Z,13.90
2019-03-06T11:59:08.450Z,13.80
2019-03-06T12:01:18.874Z,13.80
2019-03-06T12:07:51.325Z,14.30
2019-03-06T12:12:40.728Z,14.30
2019-03-06T12:18:56.558Z,14.00
2019-03-06T12:21:01.118Z,14.10
2019-03-06T12:23:07.806Z,14.00
2019-03-06T12:25:12.563Z,14.10
2019-03-06T12:27:20.580Z,14.00
2019-03-06T12:35:33.622Z,13.70
2019-03-06T12:37:57.781Z,13.80
2019-03-06T12:40:49.860Z,13.80
2019-03-06T12:42:54.413Z,14.00
2019-03-06T12:45:03.281Z,14.10
2019-03-06T12:47:10.885Z,14.00
2019-03-06T12:49:34.552Z,14.10
2019-03-06T12:51:41.797Z,14.00
2019-03-06T12:53:48.656Z,14.00
2019-03-06T12:56:23.161Z,13.80
2019-03-06T12:58:30.589Z,13.90
2019-03-06T13:00:37.672Z,13.90
2019-03-06T13:05:07.502Z,13.70
2019-03-06T13:07:12.218Z,13.70
2019-03-06T13:09:20.693Z,13.60
2019-03-06T13:11:30.225Z,13.60
2019-03-06T13:13:35.742Z,13.50
2019-03-06T13:15:40.465Z,13.50
2019-03-06T13:17:45.109Z,13.50
2019-03-06T13:19:54.978Z,13.60
2019-03-06T13:21:59.913Z,13.70
2019-03-06T13:24:05.409Z,13.70
2019-03-06T13:26:32.195Z,13.70
2019-03-06T13:28:42.191Z,13.70
2019-03-06T13:30:52.328Z,13.60
2019-03-06T13:33:20.703Z,13.70
2019-03-06T13:35:28.438Z,13.60
2019-03-06T13:37:42.038Z,13.70
2019-03-06T13:40:05.966Z,13.70
2019-03-06T13:42:10.869Z,13.80
2019-03-06T13:44:39.921Z,13.70
2019-03-06T13:46:45.072Z,13.60
2019-03-06T13:49:00.148Z,13.50
2019-03-06T13:51:24.632Z,13.60
2019-03-06T13:53:29.801Z,13.60
2019-03-06T13:55:39.272Z,13.60
2019-03-06T13:57:45.140Z,13.50
2019-03-06T13:59:50.727Z,13.60
2019-03-06T14:01:57.163Z,13.50
2019-03-06T14:04:02.120Z,13.40
2019-03-06T14:06:11.167Z,13.40
2019-03-06T14:08:15.856Z,13.30
2019-03-06T14:10:26.549Z,13.30
2019-03-06T14:12:31.376Z,13.20
2019-03-06T14:14:38.745Z,13.10
2019-03-06T14:16:44.476Z,13.20
2019-03-06T14:18:49.168Z,13.10
2019-03-06T14:20:55.090Z,13.00
2019-03-06T14:23:34.771Z,13.00
2019-03-06T14:25:34.565Z,13.00
2019-03-06T14:27:43.684Z,12.90
2019-03-06T14:29:51.208Z,12.80
2019-03-06T14:31:59.556Z,12.70
2019-03-06T14:34:05.182Z,12.50
2019-03-06T14:36:31.681Z,12.50
2019-03-06T14:43:53.475Z,12.20
2019-03-06T14:45:58.183Z,12.20
2019-03-06T14:48:15.137Z,12.20
2019-03-06T14:50:43.037Z,12.30
2019-03-06T14:52:48.774Z,12.30
2019-03-06T14:55:12.580Z,12.30
2019-03-06T15:02:03.820Z,12.30
2019-03-06T15:04:28.984Z,12.30
2019-03-06T15:06:35.807Z,12.20
2019-03-06T15:12:09.802Z,12.20
2019-03-06T15:14:22.230Z,12.20
2019-03-06T15:16:27.919Z,12.10
2019-03-06T15:18:35.508Z,12.10
2019-03-06T15:20:42.279Z,12.20
2019-03-06T15:22:48.714Z,12.20
2019-03-06T15:24:57.359Z,12.30
2019-03-06T15:27:06.600Z,12.20
2019-03-06T15:29:37.260Z,12.10
2019-03-06T15:31:43.852Z,12.00
2019-03-06T15:33:52.450Z,12.10
2019-03-06T15:36:05.943Z,12.10
2019-03-06T15:38:14.198Z,12.10
2019-03-06T15:43:14.770Z,12.10
2019-03-06T15:48:12.318Z,12.00
2019-03-06T15:52:54.846Z,12.00
2019-03-06T15:54:59.395Z,12.00
2019-03-06T15:57:03.932Z,11.90
2019-03-06T15:59:14.834Z,12.00
2019-03-06T16:01:37.224Z,12.10
2019-03-06T16:03:47.671Z,12.00
2019-03-06T16:08:08.561Z,12.00
2019-03-06T16:10:32.130Z,12.00
2019-03-06T16:12:36.859Z,11.90
2019-03-06T16:15:08.129Z,11.90
2019-03-06T16:17:12.915Z,11.90
2019-03-06T16:19:28.733Z,11.90
2019-03-06T16:21:34.108Z,11.90
2019-03-06T16:23:39.065Z,11.80
2019-03-06T16:25:43.711Z,11.80
2019-03-06T16:28:11.417Z,11.80
2019-03-06T16:30:37.061Z,11.70
2019-03-06T16:32:41.629Z,11.60
2019-03-06T16:34:46.114Z,11.70
2019-03-06T16:36:50.572Z,11.80
2019-03-06T16:38:57.480Z,11.90
2019-03-06T16:41:03.435Z,11.80
2019-03-06T16:43:07.869Z,11.80
2019-03-06T16:45:14.173Z,11.80
2019-03-06T16:47:19.072Z,11.90
2019-03-06T16:49:43.903Z,11.90
2019-03-06T16:51:48.955Z,11.90
2019-03-06T16:53:56.569Z,12.10
2019-03-06T16:56:04.057Z,12.10
2019-03-06T16:58:08.613Z,12.10
2019-03-06T17:00:30.101Z,12.10
2019-03-06T17:02:34.642Z,12.00
2019-03-06T17:04:39.743Z,12.00
2019-03-06T17:06:44.972Z,12.10
2019-03-06T17:08:49.580Z,12.10
2019-03-06T17:10:54.134Z,12.00
2019-03-06T17:13:00.168Z,12.00
2019-03-06T17:15:05.076Z,12.00
2019-03-06T17:17:11.069Z,12.00
2019-03-06T17:19:34.998Z,12.10
2019-03-06T17:21:40.390Z,12.00
2019-03-06T17:23:45.014Z,11.90
2019-03-06T17:25:50.606Z,11.90
2019-03-06T17:30:32.476Z,11.90
2019-03-06T17:32:39.286Z,11.90
2019-03-06T17:34:43.923Z,11.80
2019-03-06T17:36:52.107Z,11.80
2019-03-06T17:38:58.223Z,11.80
2019-03-06T17:41:03.536Z,11.70
2019-03-06T17:43:08.859Z,11.70
2019-03-06T17:45:13.484Z,11.70
2019-03-06T17:47:20.303Z,11.70
2019-03-06T17:49:24.963Z,11.70
2019-03-06T17:51:31.665Z,11.70
2019-03-06T17:53:40.709Z,11.70
2019-03-06T17:55:46.652Z,11.60
2019-03-06T17:57:51.720Z,11.70
2019-03-06T17:59:56.385Z,11.60
2019-03-06T18:02:02.959Z,11.60
2019-03-06T18:04:27.300Z,11.60
2019-03-06T18:06:52.476Z,11.60
2019-03-06T18:09:08.680Z,11.60
2019-03-06T18:11:14.005Z,11.60
2019-03-06T18:13:23.138Z,11.60
2019-03-06T18:15:29.385Z,11.50
2019-03-06T18:17:36.198Z,11.50
2019-03-06T18:19:44.625Z,11.50
2019-03-06T18:27:26.041Z,11.60
2019-03-06T18:29:37.394Z,11.60
2019-03-06T18:31:50.972Z,11.60
2019-03-06T18:34:01.677Z,11.50
2019-03-06T18:36:13.072Z,11.50
2019-03-06T18:38:22.375Z,11.60
2019-03-06T18:40:27.063Z,11.50
2019-03-06T18:42:50.754Z,11.60
2019-03-06T18:44:55.893Z,11.50
2019-03-06T18:52:06.547Z,11.50
2019-03-06T18:57:14.677Z,11.60
2019-03-06T18:59:19.599Z,11.60
2019-03-06T19:01:27.329Z,11.60
2019-03-06T19:03:36.427Z,11.60
2019-03-06T19:05:41.947Z,11.50
2019-03-06T19:07:48.217Z,11.60
2019-03-06T19:10:13.896Z,11.60
2019-03-06T19:14:53.346Z,11.60
2019-03-06T19:17:00.171Z,11.60
2019-03-06T19:21:36.619Z,11.50
2019-03-06T19:23:45.810Z,11.50
2019-03-06T19:25:55.732Z,11.50
2019-03-06T19:28:02.706Z,11.40
2019-03-06T19:30:15.596Z,11.50
2019-03-06T19:32:21.234Z,11.50
2019-03-06T19:36:56.335Z,11.50
2019-03-06T19:39:00.814Z,11.50
2019-03-06T19:41:06.599Z,11.60
2019-03-06T19:43:11.923Z,11.60
2019-03-06T19:45:36.544Z,11.60
2019-03-06T19:50:57.791Z,11.60
2019-03-06T19:52:47.124Z,11.50
2019-03-06T19:55:11.616Z,11.50
2019-03-06T19:57:34.652Z,11.60
2019-03-06T20:00:05.440Z,11.70
2019-03-06T20:02:40.082Z,11.60
2019-03-06T20:05:23.022Z,11.60
2019-03-06T20:07:48.974Z,11.60
2019-03-06T20:10:16.493Z,11.60
2019-03-06T20:17:20.467Z,11.50
2019-03-06T20:19:25.800Z,11.50
2019-03-06T20:21:30.717Z,11.50
2019-03-06T20:24:10.928Z,11.50
2019-03-06T20:26:13.854Z,11.50
2019-03-06T20:28:17.162Z,11.40
2019-03-06T20:30:23.826Z,11.40
2019-03-06T20:37:39.420Z,11.30
2019-03-06T20:39:52.913Z,11.30
2019-03-06T20:42:02.995Z,11.30
2019-03-06T20:44:07.878Z,11.40
2019-03-06T20:46:17.257Z,11.40
2019-03-06T20:48:23.861Z,11.40
2019-03-06T20:50:54.511Z,11.40
2019-03-06T20:53:04.480Z,11.30
2019-03-06T20:54:57.701Z,11.30
2019-03-06T20:57:23.834Z,11.30
2019-03-06T20:59:29.516Z,11.30
2019-03-06T21:01:34.762Z,11.30
2019-03-06T21:06:22.518Z,11.20
2019-03-06T21:08:36.447Z,11.20
2019-03-06T21:10:45.539Z,11.20
2019-03-06T21:12:55.737Z,11.20
2019-03-06T21:15:07.432Z,11.30
2019-03-06T21:17:15.992Z,11.40
2019-03-06T21:19:20.629Z,11.30
2019-03-06T21:21:32.979Z,11.30
2019-03-06T21:23:46.108Z,11.40
2019-03-06T21:29:12.817Z,11.30
2019-03-06T21:36:06.335Z,11.20
2019-03-06T21:38:04.186Z,11.20
2019-03-06T21:40:36.858Z,11.20
2019-03-06T21:42:46.838Z,11.20
2019-03-06T21:45:23.056Z,11.30
2019-03-06T21:49:48.688Z,11.30
2019-03-06T21:51:57.311Z,11.30
2019-03-06T21:54:02.606Z,11.30
2019-03-06T21:56:11.509Z,11.20
2019-03-06T21:58:17.660Z,11.20
2019-03-06T22:00:43.618Z,11.20
2019-03-06T22:02:48.771Z,11.20
2019-03-06T22:04:55.390Z,11.10
2019-03-06T22:07:00.745Z,11.10
2019-03-06T22:09:11.813Z,11.10
2019-03-06T22:11:19.786Z,11.20
2019-03-06T22:13:25.138Z,11.20
2019-03-06T22:15:31.568Z,11.10
2019-03-06T22:17:57.420Z,11.10
2019-03-06T22:20:02.384Z,11.10
2019-03-06T22:22:09.916Z,11.00
2019-03-06T22:24:14.679Z,11.00
2019-03-06T22:26:22.481Z,11.10
2019-03-06T22:28:46.656Z,11.10
2019-03-06T22:30:51.978Z,11.10
2019-03-06T22:32:57.112Z,11.10
2019-03-06T22:35:22.170Z,11.20
2019-03-06T22:37:28.425Z,11.20
2019-03-06T22:39:33.134Z,11.10
2019-03-06T22:41:57.001Z,11.10
2019-03-06T22:46:36.909Z,11.00
2019-03-06T22:48:53.690Z,11.10
2019-03-06T22:51:01.140Z,11.00
2019-03-06T22:53:25.237Z,11.00
2019-03-06T22:55:30.176Z,11.10
2019-03-06T23:00:52.929Z,11.10
2019-03-06T23:03:05.712Z,10.90
2019-03-06T23:07:51.488Z,10.90
2019-03-06T23:13:38.033Z,11.00
2019-03-06T23:20:36.044Z,10.90
2019-03-06T23:22:44.835Z,11.00
2019-03-06T23:24:50.143Z,10.90
2019-03-06T23:26:54.871Z,10.90
2019-03-06T23:28:59.687Z,11.00
2019-03-06T23:31:04.693Z,11.00
2019-03-06T23:33:09.398Z,10.90
2019-03-06T23:35:14.049Z,10.90
2019-03-06T23:37:19.050Z,10.90
2019-03-06T23:39:23.847Z,10.90
2019-03-06T23:41:28.863Z,10.80
2019-03-06T23:43:33.873Z,10.80
2019-03-06T23:45:41.334Z,10.80
2019-03-06T23:47:46.393Z,10.80
2019-03-06T23:50:10.175Z,10.80
2019-03-06T23:52:24.433Z,10.70
2019-03-06T23:54:29.876Z,10.80
2019-03-06T23:56:34.563Z,10.80
2019-03-06T23:58:39.964Z,10.80
